Time;durP1;ratioP1;P1;durP2;ratioP2;P2;SDS_P1;SDS_P2;PMS_P1;PMS_P2;Temp;Humidity;BMP_temperature;BMP_pressure;BME280_temperature;BME280_humidity;BME280_pressure;Samples;Min_cycle;Max_cycle;Signal;HPM_P1;HPM_P2
2022/01/14 00:02:00;;;;;;;33.17;18.13;;;4.40;99.90;;;;;;4976268;28;20182;-88
2022/01/14 00:04:26;;;;;;;29.30;17.00;;;4.30;99.90;;;;;;4976521;28;20175;-87
2022/01/14 00:06:52;;;;;;;36.47;18.23;;;4.20;99.90;;;;;;4976233;28;20217;-87
2022/01/14 00:09:18;;;;;;;34.53;18.20;;;4.40;99.90;;;;;;4976446;28;20634;-88
2022/01/14 00:11:55;;;;;;;33.97;17.77;;;4.40;99.90;;;;;;4976290;28;20236;-88
2022/01/14 00:14:35;;;;;;;38.87;18.33;;;4.40;99.90;;;;;;4976066;28;20221;-87
2022/01/14 00:17:01;;;;;;;32.70;17.47;;;4.50;99.90;;;;;;4976260;28;20189;-88
2022/01/14 00:19:27;;;;;;;36.87;18.77;;;4.40;99.90;;;;;;4976456;28;20182;-88
2022/01/14 00:21:52;;;;;;;35.87;17.67;;;4.50;99.90;;;;;;4976443;28;20213;-88
2022/01/14 00:32:20;;;;;;;33.57;18.87;;;4.10;99.90;;;;;;4993517;28;20213;-88
2022/01/14 00:34:46;;;;;;;35.60;18.20;;;4.10;99.90;;;;;;4976155;28;20222;-88
2022/01/14 00:37:14;;;;;;;39.07;20.27;;;4.40;99.90;;;;;;4976030;28;20189;-88
2022/01/14 00:39:40;;;;;;;40.23;20.97;;;4.60;99.90;;;;;;4976235;28;20178;-88
2022/01/14 00:42:07;;;;;;;31.53;18.70;;;4.60;99.90;;;;;;4977610;28;20590;-88
2022/01/14 00:44:32;;;;;;;37.17;18.67;;;4.50;99.90;;;;;;4979240;28;20205;-87
2022/01/14 00:47:01;;;;;;;39.17;20.07;;;4.50;99.90;;;;;;4979876;28;20269;-88
2022/01/14 00:49:26;;;;;;;38.40;19.03;;;4.30;99.90;;;;;;4979711;28;20224;-87
2022/01/14 00:51:52;;;;;;;31.97;18.30;;;4.30;99.90;;;;;;4979745;28;20177;-88
2022/01/14 00:54:18;;;;;;;38.90;20.50;;;4.30;99.90;;;;;;4979623;28;20206;-88
2022/01/14 00:56:48;;;;;;;34.53;18.83;;;4.30;99.90;;;;;;4979702;28;20525;-88
2022/01/14 00:59:16;;;;;;;33.20;19.40;;;4.30;99.90;;;;;;4979127;28;20268;-88
2022/01/14 01:01:43;;;;;;;36.27;19.77;;;4.20;99.90;;;;;;4979318;28;20187;-88
2022/01/14 01:04:11;;;;;;;35.37;20.30;;;4.30;99.90;;;;;;4979379;28;20210;-88
2022/01/14 01:06:37;;;;;;;43.97;22.20;;;4.30;99.90;;;;;;4979367;28;20198;-88
2022/01/14 01:09:08;;;;;;;39.20;21.27;;;4.30;99.90;;;;;;4979169;28;20681;-88
2022/01/14 01:11:37;;;;;;;40.47;20.90;;;4.30;99.90;;;;;;4979274;28;20206;-89
2022/01/14 01:14:10;;;;;;;37.77;20.27;;;4.20;99.90;;;;;;4978753;28;20196;-88
2022/01/14 01:16:35;;;;;;;41.97;20.87;;;4.10;99.90;;;;;;4979306;28;20185;-87
2022/01/14 01:19:01;;;;;;;38.97;20.33;;;4.10;99.90;;;;;;4979108;28;20178;-88
2022/01/14 01:21:27;;;;;;;33.10;18.53;;;4.10;99.90;;;;;;4979075;28;20181;-88
2022/01/14 01:23:52;;;;;;;37.33;20.53;;;4.10;99.90;;;;;;4979036;28;20682;-87
2022/01/14 01:26:30;;;;;;;39.30;19.57;;;4.20;99.90;;;;;;4979018;28;20525;-88
2022/01/14 01:31:40;;;;;;;37.97;19.77;;;4.40;99.90;;;;;;4999122;28;20178;-88
2022/01/14 01:34:14;;;;;;;40.40;21.10;;;4.30;99.90;;;;;;4978493;28;20544;-88
2022/01/14 01:36:43;;;;;;;38.77;20.67;;;4.10;99.90;;;;;;4978871;28;20638;-88
2022/01/14 01:39:11;;;;;;;34.60;19.20;;;4.20;99.90;;;;;;4978372;28;20653;-86
2022/01/14 01:41:40;;;;;;;34.97;19.93;;;4.30;99.90;;;;;;4978829;28;20226;-86
2022/01/14 01:44:07;;;;;;;39.40;20.57;;;4.40;99.90;;;;;;4978418;28;20202;-88
2022/01/14 01:46:37;;;;;;;37.07;19.97;;;4.50;99.90;;;;;;4978485;28;20178;-86
2022/01/14 01:49:04;;;;;;;37.97;20.40;;;4.30;99.90;;;;;;4978627;28;20170;-88
2022/01/14 01:51:30;;;;;;;40.83;20.63;;;4.40;99.90;;;;;;4978634;28;20174;-88
2022/01/14 01:53:56;;;;;;;37.43;19.20;;;4.30;99.90;;;;;;4977269;28;20174;-88
2022/01/14 01:56:21;;;;;;;44.87;19.87;;;4.20;99.90;;;;;;4978099;28;20590;-88
2022/01/14 01:58:47;;;;;;;35.33;19.87;;;4.10;99.90;;;;;;4978848;28;20180;-89
2022/01/14 02:01:13;;;;;;;36.67;20.03;;;4.00;99.90;;;;;;4978332;28;20174;-85
2022/01/14 02:03:39;;;;;;;38.20;19.47;;;4.00;99.90;;;;;;4978365;28;20643;-86
2022/01/14 02:06:05;;;;;;;37.60;20.47;;;4.00;99.90;;;;;;4978232;28;20194;-87
2022/01/14 02:08:31;;;;;;;39.70;18.93;;;4.00;99.90;;;;;;4978336;28;20189;-88
2022/01/14 02:10:57;;;;;;;38.27;20.07;;;4.00;99.90;;;;;;4978222;28;20178;-88
2022/01/14 02:13:23;;;;;;;44.83;21.80;;;4.30;99.90;;;;;;4978142;28;20178;-87
2022/01/14 02:16:47;;;;;;;44.60;20.20;;;4.40;99.90;;;;;;4978070;28;20209;-87
2022/01/14 02:18:40;;;;;;;44.90;20.73;;;4.40;99.90;;;;;;4984561;28;20186;-87
2022/01/14 02:24:09;;;;;;;42.23;20.90;;;4.20;99.90;;;;;;4995493;28;20434;-87
2022/01/14 02:26:48;;;;;;;44.30;21.77;;;4.50;99.90;;;;;;4977623;28;20622;-88
2022/01/14 02:29:14;;;;;;;43.47;21.77;;;4.50;99.90;;;;;;4977959;28;20185;-87
2022/01/14 02:31:40;;;;;;;42.00;21.73;;;4.50;99.90;;;;;;4977859;28;20228;-87
2022/01/14 02:34:06;;;;;;;38.80;20.57;;;4.50;99.90;;;;;;4977695;28;20249;-88
2022/01/14 02:36:32;;;;;;;42.07;23.77;;;4.30;99.90;;;;;;4977604;28;20220;-86
2022/01/14 02:38:59;;;;;;;39.57;20.93;;;4.50;99.90;;;;;;4977412;28;20182;-88
2022/01/14 02:41:26;;;;;;;41.53;21.03;;;4.40;99.90;;;;;;4994881;28;20190;-89
2022/01/14 02:43:52;;;;;;;39.60;21.03;;;4.40;99.90;;;;;;4977757;28;20194;-86
2022/01/14 02:46:18;;;;;;;41.53;21.80;;;4.50;99.90;;;;;;4977420;28;20381;-88
2022/01/14 02:48:43;;;;;;;43.13;21.57;;;4.30;99.90;;;;;;4977642;28;20652;-88
2022/01/14 02:51:14;;;;;;;41.73;21.07;;;4.20;99.90;;;;;;4977488;28;20188;-86
2022/01/14 02:56:09;;;;;;;41.37;20.00;;;4.10;99.90;;;;;;4994306;28;20221;-86
2022/01/14 02:58:37;;;;;;;40.57;20.87;;;4.00;99.90;;;;;;4977642;28;20312;-86
2022/01/14 03:01:18;;;;;;;40.23;22.07;;;4.00;99.90;;;;;;4977131;28;20462;-86
2022/01/14 03:03:45;;;;;;;44.40;21.70;;;4.20;99.90;;;;;;4977278;28;20646;-86
2022/01/14 03:06:12;;;;;;;40.73;21.00;;;4.00;99.90;;;;;;4976741;28;20234;-86
2022/01/14 03:08:38;;;;;;;43.57;21.83;;;4.00;99.90;;;;;;4977160;28;20182;-88
2022/01/14 03:11:10;;;;;;;48.63;23.00;;;4.30;99.90;;;;;;4977127;28;20202;-85
2022/01/14 03:13:37;;;;;;;41.97;21.67;;;4.80;99.90;;;;;;4977141;28;20555;-88
2022/01/14 03:16:03;;;;;;;45.77;23.17;;;5.10;99.90;;;;;;4961893;28;20226;-88
2022/01/14 03:18:43;;;;;;;51.53;23.63;;;5.10;99.90;;;;;;4957619;28;20639;-87
2022/01/14 03:21:10;;;;;;;51.43;23.93;;;5.10;99.90;;;;;;4957453;28;20206;-88
2022/01/14 03:23:50;;;;;;;50.20;24.30;;;5.40;99.90;;;;;;4957277;28;20261;-87
2022/01/14 03:26:20;;;;;;;51.47;24.90;;;5.50;99.90;;;;;;4957455;28;20702;-88
2022/01/14 03:28:47;;;;;;;52.90;24.63;;;5.40;99.90;;;;;;4957737;28;20178;-88
2022/01/14 03:31:14;;;;;;;52.37;24.63;;;5.30;99.90;;;;;;4957499;28;20174;-88
2022/01/14 03:33:39;;;;;;;47.83;23.97;;;5.40;99.90;;;;;;4957280;28;20185;-87
2022/01/14 03:36:06;;;;;;;55.30;24.17;;;5.40;99.90;;;;;;4957532;28;20226;-88
2022/01/14 03:38:32;;;;;;;54.93;26.17;;;5.40;99.90;;;;;;4957458;28;20805;-87
2022/01/14 03:40:58;;;;;;;50.43;25.00;;;5.50;99.90;;;;;;4957476;28;20277;-87
2022/01/14 03:43:24;;;;;;;55.23;24.23;;;5.40;99.90;;;;;;4957503;28;20213;-87
2022/01/14 03:45:50;;;;;;;53.00;27.10;;;5.40;99.90;;;;;;4957393;28;20222;-87
2022/01/14 03:48:19;;;;;;;52.27;26.83;;;5.50;99.90;;;;;;4957019;28;20228;-87
2022/01/14 03:50:45;;;;;;;61.90;26.00;;;5.40;99.90;;;;;;4957349;28;20175;-88
2022/01/14 03:53:12;;;;;;;51.87;24.80;;;5.40;99.90;;;;;;4957043;28;20178;-88
2022/01/14 03:55:40;;;;;;;52.87;23.67;;;5.30;99.90;;;;;;4957035;28;20216;-86
2022/01/14 03:58:07;;;;;;;51.90;25.70;;;5.10;99.90;;;;;;4957278;28;20255;-88
2022/01/14 04:00:32;;;;;;;60.70;25.93;;;5.30;99.90;;;;;;4959720;28;20179;-88
2022/01/14 04:02:58;;;;;;;55.27;25.00;;;5.20;99.90;;;;;;4960042;28;20577;-88
2022/01/14 04:05:24;;;;;;;49.70;23.67;;;5.20;99.90;;;;;;4957257;28;20194;-86
2022/01/14 04:07:49;;;;;;;50.87;23.63;;;5.20;99.90;;;;;;4956868;28;20583;-88
2022/01/14 04:10:15;;;;;;;49.00;24.53;;;5.30;99.90;;;;;;4957331;28;20234;-88
2022/01/14 04:12:48;;;;;;;46.87;24.57;;;5.40;99.90;;;;;;4957247;28;20170;-88
2022/01/14 04:18:00;;;;;;;60.80;25.07;;;5.40;99.90;;;;;;4977362;28;20174;-87
2022/01/14 04:20:26;;;;;;;51.33;25.33;;;5.60;99.90;;;;;;4960879;28;20182;-88
2022/01/14 04:22:52;;;;;;;60.80;26.23;;;5.60;99.90;;;;;;4961032;28;20178;-87
2022/01/14 04:25:18;;;;;;;53.93;26.67;;;5.50;99.90;;;;;;4960812;28;20547;-88
2022/01/14 04:27:43;;;;;;;49.10;24.20;;;5.40;99.90;;;;;;4960727;28;20224;-88
2022/01/14 04:30:09;;;;;;;54.40;27.13;;;5.20;99.90;;;;;;4961018;28;20186;-88
2022/01/14 04:32:35;;;;;;;51.63;25.60;;;5.20;99.90;;;;;;4960460;28;20174;-87
2022/01/14 04:35:01;;;;;;;58.73;27.23;;;5.20;99.90;;;;;;4960250;28;20214;-88
2022/01/14 04:37:26;;;;;;;47.20;24.13;;;5.10;99.90;;;;;;4960912;28;20265;-88
2022/01/14 04:39:52;;;;;;;52.70;25.47;;;5.00;99.90;;;;;;4960834;28;20185;-88
2022/01/14 04:42:18;;;;;;;55.93;26.80;;;4.90;99.90;;;;;;4960470;28;20262;-88
2022/01/14 04:44:43;;;;;;;49.27;23.67;;;4.80;99.90;;;;;;4960137;28;20194;-87
2022/01/14 04:47:18;;;;;;;48.50;25.10;;;5.00;99.90;;;;;;4960432;28;20185;-88
2022/01/14 04:49:44;;;;;;;52.73;25.20;;;4.90;99.90;;;;;;4960213;28;20190;-88
2022/01/14 04:52:10;;;;;;;52.47;24.60;;;5.10;99.90;;;;;;4960582;28;20241;-88
2022/01/14 04:54:36;;;;;;;52.63;25.40;;;5.20;99.90;;;;;;4960170;28;20675;-87
2022/01/14 04:57:02;;;;;;;53.77;25.77;;;5.30;99.90;;;;;;4960423;28;20269;-88
2022/01/14 04:59:29;;;;;;;53.40;26.50;;;5.20;99.90;;;;;;4960131;28;20626;-88
2022/01/14 05:01:57;;;;;;;57.23;26.87;;;5.20;99.90;;;;;;4960251;28;20178;-87
2022/01/14 05:04:23;;;;;;;51.53;26.37;;;5.20;99.90;;;;;;4959786;28;20186;-88
2022/01/14 05:06:56;;;;;;;53.30;25.97;;;5.00;99.90;;;;;;4959830;28;20202;-88
2022/01/14 05:09:28;;;;;;;56.43;27.20;;;5.10;99.90;;;;;;4959819;28;20270;-88
2022/01/14 05:11:58;;;;;;;55.57;26.27;;;5.00;99.90;;;;;;4959912;28;20214;-88
2022/01/14 05:14:24;;;;;;;59.20;27.27;;;5.00;99.90;;;;;;4959766;28;20210;-88
2022/01/14 05:16:50;;;;;;;54.90;27.20;;;5.00;99.90;;;;;;4959837;28;20199;-88
2022/01/14 05:19:15;;;;;;;56.10;26.90;;;4.90;99.90;;;;;;4959627;28;20699;-87
2022/01/14 05:21:41;;;;;;;52.00;26.23;;;5.00;99.90;;;;;;4959801;28;20179;-86
2022/01/14 05:24:08;;;;;;;62.60;28.37;;;5.00;99.90;;;;;;4959522;28;20198;-88
2022/01/14 05:26:33;;;;;;;61.47;26.63;;;5.00;99.90;;;;;;4959957;28;20170;-87
2022/01/14 05:28:59;;;;;;;56.97;29.13;;;4.90;99.90;;;;;;4959449;28;20183;-87
2022/01/14 05:32:03;;;;;;;62.53;28.63;;;5.10;99.90;;;;;;4959824;28;20189;-85
2022/01/14 05:34:32;;;;;;;65.67;30.60;;;5.10;99.90;;;;;;4916895;29;20208;-88
2022/01/14 05:36:59;;;;;;;62.63;29.70;;;5.20;99.90;;;;;;4966229;28;20275;-85
2022/01/14 05:39:25;;;;;;;56.70;27.63;;;5.10;99.90;;;;;;4959142;28;20554;-86
2022/01/14 05:41:51;;;;;;;57.13;27.90;;;4.90;99.90;;;;;;4959521;28;20273;-88
2022/01/14 05:44:17;;;;;;;67.03;29.57;;;5.00;99.90;;;;;;4959215;28;20202;-88
2022/01/14 05:46:43;;;;;;;61.10;31.23;;;5.30;99.90;;;;;;4959330;28;20183;-88
2022/01/14 05:49:09;;;;;;;61.93;31.27;;;5.40;99.90;;;;;;4958972;28;20178;-88
2022/01/14 05:51:35;;;;;;;63.30;30.13;;;5.30;99.90;;;;;;4959421;28;20196;-88
2022/01/14 05:54:00;;;;;;;63.33;28.93;;;5.20;99.90;;;;;;4959150;28;20190;-88
2022/01/14 05:56:26;;;;;;;60.07;29.53;;;5.20;99.90;;;;;;4958993;28;20594;-87
2022/01/14 05:58:52;;;;;;;63.60;29.90;;;5.30;99.90;;;;;;4959245;28;20206;-87
2022/01/14 06:01:17;;;;;;;57.43;28.87;;;5.30;99.90;;;;;;4959413;28;20179;-88
2022/01/14 06:03:43;;;;;;;64.53;29.17;;;5.20;99.90;;;;;;4958575;28;20185;-88
2022/01/14 06:06:09;;;;;;;57.60;29.30;;;5.20;99.90;;;;;;4977081;28;20202;-88
2022/01/14 06:08:34;;;;;;;57.27;29.30;;;5.30;99.90;;;;;;4974643;28;20184;-86
2022/01/14 06:11:00;;;;;;;55.43;30.23;;;5.20;99.90;;;;;;4977642;28;20232;-88
2022/01/14 06:13:26;;;;;;;58.87;30.37;;;5.30;99.90;;;;;;4977368;28;20181;-88
2022/01/14 06:15:52;;;;;;;64.37;30.43;;;5.40;99.90;;;;;;4977532;28;20304;-88
2022/01/14 06:18:18;;;;;;;66.27;30.63;;;5.40;99.90;;;;;;4977514;28;20212;-89
2022/01/14 06:20:43;;;;;;;62.53;32.03;;;5.40;99.90;;;;;;4977187;28;20193;-88
2022/01/14 06:23:09;;;;;;;67.37;31.70;;;5.40;99.90;;;;;;4977895;28;20313;-88
2022/01/14 06:25:35;;;;;;;59.40;29.20;;;5.40;99.90;;;;;;4977345;28;20638;-88
2022/01/14 06:28:00;;;;;;;59.37;32.23;;;5.30;99.90;;;;;;4977695;28;20265;-87
2022/01/14 06:30:26;;;;;;;62.90;30.30;;;5.40;99.90;;;;;;4977773;28;20536;-88
2022/01/14 06:32:53;;;;;;;62.13;30.87;;;5.30;99.90;;;;;;4977589;28;20178;-88
2022/01/14 06:35:19;;;;;;;57.57;29.23;;;5.40;99.90;;;;;;4980726;28;20237;-88
2022/01/14 06:37:44;;;;;;;66.23;29.93;;;5.50;99.90;;;;;;4980647;28;20198;-88
2022/01/14 06:40:11;;;;;;;66.27;31.40;;;5.50;99.90;;;;;;4975443;28;20185;-88
2022/01/14 06:42:37;;;;;;;67.20;31.70;;;5.50;99.90;;;;;;4972614;28;20201;-87
2022/01/14 06:45:07;;;;;;;64.77;30.63;;;5.40;99.90;;;;;;4963411;28;20252;-87
2022/01/14 06:47:32;;;;;;;63.23;30.97;;;5.30;99.90;;;;;;4971676;28;20273;-87
2022/01/14 06:49:59;;;;;;;60.17;29.87;;;5.30;99.90;;;;;;4959545;28;20667;-87
2022/01/14 06:52:25;;;;;;;60.10;30.23;;;5.20;99.90;;;;;;4966148;28;20182;-86
2022/01/14 06:54:50;;;;;;;73.73;32.23;;;5.40;99.90;;;;;;4975735;28;20301;-87
2022/01/14 06:57:16;;;;;;;67.03;31.37;;;5.40;99.90;;;;;;4962082;28;20289;-87
2022/01/14 06:59:42;;;;;;;61.70;29.93;;;5.40;99.90;;;;;;4958044;28;20193;-86
2022/01/14 07:02:10;;;;;;;63.23;31.50;;;5.40;99.90;;;;;;4966633;28;20265;-87
2022/01/14 07:04:36;;;;;;;66.97;33.07;;;5.20;99.90;;;;;;4976445;28;20186;-87
2022/01/14 07:07:03;;;;;;;71.30;32.40;;;5.30;99.90;;;;;;4976012;28;20659;-87
2022/01/14 07:09:30;;;;;;;64.33;31.90;;;5.30;99.90;;;;;;4976112;28;20272;-86
2022/01/14 07:11:58;;;;;;;82.70;33.17;;;5.30;99.90;;;;;;4975329;28;20190;-86
2022/01/14 07:14:25;;;;;;;65.53;32.70;;;5.30;99.90;;;;;;4976104;28;20214;-87
2022/01/14 07:16:51;;;;;;;68.33;32.30;;;5.20;99.90;;;;;;4976232;28;20662;-87
2022/01/14 07:19:20;;;;;;;61.17;31.47;;;5.20;99.90;;;;;;4976051;28;20181;-87
2022/01/14 07:21:45;;;;;;;69.30;32.03;;;5.30;99.90;;;;;;4975549;28;20232;-88
2022/01/14 07:24:13;;;;;;;75.53;33.67;;;5.30;99.90;;;;;;4976714;28;20658;-86
2022/01/14 07:26:40;;;;;;;64.50;32.07;;;5.30;99.90;;;;;;4976492;28;20193;-87
2022/01/14 07:29:06;;;;;;;74.63;32.53;;;5.30;99.90;;;;;;4976290;28;20244;-86
2022/01/14 07:31:32;;;;;;;71.40;31.97;;;5.10;99.90;;;;;;4976562;28;20209;-86
2022/01/14 07:33:57;;;;;;;72.03;32.57;;;5.10;99.90;;;;;;4976374;28;20174;-86
2022/01/14 07:36:23;;;;;;;65.40;30.87;;;5.00;99.90;;;;;;4976427;28;20304;-86
2022/01/14 07:38:49;;;;;;;84.53;39.50;;;5.20;99.90;;;;;;4967468;28;20185;-86
2022/01/14 07:41:15;;;;;;;75.83;33.03;;;5.20;99.90;;;;;;4975462;28;21015;-86
2022/01/14 07:43:45;;;;;;;69.57;31.30;;;5.20;99.90;;;;;;4974606;28;20217;-87
2022/01/14 07:46:11;;;;;;;69.43;31.47;;;5.10;99.90;;;;;;4975773;28;20204;-87
2022/01/14 07:48:37;;;;;;;62.53;30.63;;;5.00;99.90;;;;;;4975453;28;20256;-87
2022/01/14 07:51:03;;;;;;;59.57;31.00;;;4.90;99.90;;;;;;4975189;28;20198;-87
2022/01/14 07:53:29;;;;;;;70.80;31.50;;;4.80;99.90;;;;;;4975450;28;20177;-87
2022/01/14 07:55:55;;;;;;;62.80;30.43;;;5.10;99.90;;;;;;4975866;28;20693;-87
2022/01/14 07:58:22;;;;;;;62.00;30.90;;;5.10;99.90;;;;;;4976056;28;20205;-87
2022/01/14 08:00:48;;;;;;;61.77;29.83;;;5.00;99.90;;;;;;4975686;28;20288;-87
2022/01/14 08:03:13;;;;;;;58.27;29.40;;;5.00;99.90;;;;;;4975394;28;20617;-87
2022/01/14 08:05:39;;;;;;;64.80;30.77;;;4.90;99.90;;;;;;4973113;28;20210;-87
2022/01/14 08:08:07;;;;;;;55.03;27.43;;;4.90;99.90;;;;;;4956853;28;20310;-87
2022/01/14 08:10:33;;;;;;;56.00;29.83;;;4.80;99.90;;;;;;4956569;28;20186;-88
2022/01/14 08:12:59;;;;;;;59.27;28.87;;;5.00;99.90;;;;;;4974430;28;20194;-88
2022/01/14 08:15:25;;;;;;;59.73;30.10;;;5.10;99.90;;;;;;4976264;28;20229;-89
2022/01/14 08:17:51;;;;;;;68.77;30.10;;;5.20;99.90;;;;;;4967090;28;20186;-87
2022/01/14 08:20:16;;;;;;;61.13;32.10;;;5.30;99.90;;;;;;4974778;28;20196;-87
2022/01/14 08:22:42;;;;;;;65.47;30.27;;;5.30;99.90;;;;;;4975467;28;20265;-88
2022/01/14 08:25:09;;;;;;;64.60;30.23;;;5.30;99.90;;;;;;4976063;28;20226;-89
2022/01/14 08:27:35;;;;;;;61.03;29.60;;;5.30;99.90;;;;;;4975775;28;20178;-88
2022/01/14 08:30:02;;;;;;;64.13;29.93;;;5.20;99.90;;;;;;4976340;28;20213;-86
2022/01/14 08:32:28;;;;;;;57.97;29.77;;;5.40;99.90;;;;;;4975634;28;20178;-88
2022/01/14 08:34:53;;;;;;;68.63;32.00;;;5.60;99.90;;;;;;4975141;28;20277;-88
2022/01/14 08:37:19;;;;;;;61.10;31.03;;;5.60;99.90;;;;;;4975392;28;20205;-86
2022/01/14 08:39:45;;;;;;;68.50;31.73;;;5.60;99.90;;;;;;4975435;28;20185;-88
2022/01/14 08:42:12;;;;;;;67.53;31.57;;;5.70;99.90;;;;;;4975401;28;20212;-89
2022/01/14 08:44:38;;;;;;;72.67;33.17;;;5.70;99.90;;;;;;4975283;28;20194;-89
2022/01/14 08:47:09;;;;;;;71.37;34.57;;;5.70;99.90;;;;;;4976116;28;20189;-89
2022/01/14 08:49:42;;;;;;;73.30;34.60;;;5.90;99.90;;;;;;4976338;28;20177;-88
2022/01/14 08:52:09;;;;;;;82.00;35.67;;;5.90;99.90;;;;;;4976080;28;20174;-87
2022/01/14 08:54:35;;;;;;;75.30;34.13;;;5.80;99.90;;;;;;4975055;28;20226;-86
2022/01/14 08:57:03;;;;;;;71.93;34.87;;;5.60;99.90;;;;;;4969878;28;20190;-84
2022/01/14 08:59:32;;;;;;;69.53;33.83;;;5.70;99.90;;;;;;4975288;28;20186;-85
2022/01/14 09:01:59;;;;;;;64.13;34.00;;;5.70;99.90;;;;;;4975659;28;20201;-84
2022/01/14 09:04:24;;;;;;;70.40;33.50;;;5.60;99.90;;;;;;4978842;28;20635;-85
2022/01/14 09:06:50;;;;;;;74.73;35.97;;;5.60;99.90;;;;;;4979187;28;20254;-85
2022/01/14 09:09:16;;;;;;;78.43;34.67;;;5.70;99.90;;;;;;4979542;28;20186;-85
2022/01/14 09:11:42;;;;;;;71.27;35.00;;;5.80;99.90;;;;;;4978776;28;20228;-85
2022/01/14 09:14:08;;;;;;;71.70;35.60;;;5.80;99.90;;;;;;4976074;28;20565;-86
2022/01/14 09:16:34;;;;;;;71.67;34.13;;;5.60;99.90;;;;;;4976762;28;20592;-85
2022/01/14 09:19:00;;;;;;;71.43;35.30;;;5.80;99.90;;;;;;4964929;28;20189;-88
2022/01/14 09:21:26;;;;;;;69.80;35.30;;;5.80;99.90;;;;;;4976523;28;20211;-84
2022/01/14 09:23:52;;;;;;;65.53;34.50;;;6.00;99.90;;;;;;4978203;28;20539;-87
2022/01/14 09:26:19;;;;;;;82.23;36.33;;;6.00;99.90;;;;;;4978510;28;20190;-85
2022/01/14 09:28:45;;;;;;;74.47;35.23;;;6.10;99.90;;;;;;4978323;28;20186;-86
2022/01/14 09:31:10;;;;;;;77.83;36.87;;;6.00;99.90;;;;;;4977836;28;20188;-84
2022/01/14 09:33:38;;;;;;;65.67;34.63;;;5.90;99.90;;;;;;4977813;28;20182;-86
2022/01/14 09:36:04;;;;;;;74.40;35.00;;;5.90;99.90;;;;;;4977425;28;20214;-85
2022/01/14 09:38:31;;;;;;;70.00;34.43;;;6.20;99.90;;;;;;4978433;28;20178;-84
2022/01/14 09:40:57;;;;;;;62.40;32.90;;;6.10;99.90;;;;;;4977677;28;20268;-86
2022/01/14 09:43:23;;;;;;;62.63;35.30;;;6.30;99.90;;;;;;4977878;28;20209;-85
2022/01/14 09:45:57;;;;;;;66.87;34.00;;;6.30;99.90;;;;;;4973726;28;20198;-85
2022/01/14 09:48:23;;;;;;;65.87;34.43;;;6.40;99.90;;;;;;4978224;28;20664;-87
2022/01/14 09:50:48;;;;;;;68.60;33.80;;;6.40;99.90;;;;;;4977929;28;20182;-86
2022/01/14 09:53:15;;;;;;;66.57;33.13;;;6.50;99.90;;;;;;4974424;28;20284;-87
2022/01/14 09:55:42;;;;;;;68.53;34.53;;;6.40;99.90;;;;;;4971476;28;20318;-86
2022/01/14 09:58:09;;;;;;;66.73;33.17;;;6.20;99.90;;;;;;4978015;28;20218;-85
2022/01/14 10:00:35;;;;;;;61.17;33.93;;;6.40;99.90;;;;;;4977630;28;20639;-86
2022/01/14 10:03:16;;;;;;;64.57;36.50;;;6.60;99.90;;;;;;4977713;28;20585;-85
2022/01/14 10:05:44;;;;;;;59.83;33.43;;;6.90;99.90;;;;;;4975084;28;20203;-85
2022/01/14 10:08:14;;;;;;;62.60;32.87;;;6.70;99.90;;;;;;4977434;28;20269;-88
2022/01/14 10:10:48;;;;;;;60.73;33.27;;;6.70;99.90;;;;;;4977303;28;20234;-85
2022/01/14 10:13:18;;;;;;;61.80;32.63;;;6.60;99.90;;;;;;4977295;28;20200;-85
2022/01/14 10:15:48;;;;;;;58.87;32.93;;;6.60;99.90;;;;;;4972835;28;20229;-85
2022/01/14 10:18:16;;;;;;;58.87;32.90;;;6.70;99.90;;;;;;4977597;28;20580;-86
2022/01/14 10:20:42;;;;;;;68.70;32.97;;;6.60;99.90;;;;;;4977645;28;20186;-86
2022/01/14 10:23:08;;;;;;;67.03;32.17;;;6.60;99.90;;;;;;4976666;28;20553;-86
2022/01/14 10:25:33;;;;;;;58.73;32.07;;;6.60;99.90;;;;;;4977367;28;20653;-85
2022/01/14 10:27:59;;;;;;;61.37;32.10;;;6.60;99.90;;;;;;4976629;28;20186;-85
2022/01/14 10:30:33;;;;;;;65.73;32.17;;;6.70;99.90;;;;;;4977077;28;20617;-86
2022/01/14 10:33:09;;;;;;;56.80;32.43;;;6.80;99.90;;;;;;4976913;28;20183;-86
2022/01/14 10:35:45;;;;;;;65.13;32.40;;;7.10;99.90;;;;;;4976770;28;20221;-86
2022/01/14 10:38:16;;;;;;;67.80;32.53;;;7.70;99.90;;;;;;4961859;28;20178;-85
2022/01/14 10:40:51;;;;;;;60.63;33.73;;;8.40;99.90;;;;;;4976653;28;20559;-86
2022/01/14 10:43:21;;;;;;;63.47;31.80;;;9.00;99.90;;;;;;4976735;28;20184;-86
2022/01/14 10:45:48;;;;;;;56.00;32.67;;;9.30;99.90;;;;;;4969356;28;20219;-86
2022/01/14 10:48:32;;;;;;;56.17;30.67;;;9.90;99.90;;;;;;4976693;28;20175;-86
2022/01/14 10:51:06;;;;;;;49.97;27.60;;;10.60;99.90;;;;;;4976578;28;20193;-86
2022/01/14 10:53:37;;;;;;;40.40;24.83;;;11.20;99.90;;;;;;4976447;28;20705;-87
2022/01/14 10:56:08;;;;;;;37.80;21.43;;;11.60;99.90;;;;;;4976173;28;20444;-86
2022/01/14 10:58:42;;;;;;;39.93;21.13;;;11.90;99.90;;;;;;4976920;28;20214;-86
2022/01/14 11:01:21;;;;;;;35.27;21.07;;;12.50;99.90;;;;;;4975990;28;20187;-86
2022/01/14 11:04:02;;;;;;;44.17;24.87;;;13.00;99.90;;;;;;4976525;28;20712;-85
2022/01/14 11:06:29;;;;;;;37.00;20.37;;;13.90;99.90;;;;;;4961625;28;20199;-88
2022/01/14 11:09:18;;;;;;;36.17;17.80;;;14.40;99.90;;;;;;4977065;28;20188;-86
2022/01/14 11:11:46;;;;;;;28.27;16.10;;;14.70;99.90;;;;;;4976673;28;20185;-87
2022/01/14 11:14:14;;;;;;;28.93;16.30;;;15.10;99.90;;;;;;4977348;28;20230;-87
2022/01/14 11:16:39;;;;;;;31.80;16.07;;;15.40;99.90;;;;;;4977944;28;20648;-87
2022/01/14 11:19:08;;;;;;;33.47;16.57;;;15.70;99.80;;;;;;4976546;28;20235;-87
2022/01/14 11:24:25;;;;;;;26.80;16.23;;;16.40;97.80;;;;;;4993549;28;20544;-86
2022/01/14 11:27:04;;;;;;;27.47;17.07;;;16.40;97.10;;;;;;4975808;28;20193;-87
2022/01/14 11:29:39;;;;;;;31.53;17.27;;;16.20;97.60;;;;;;4976289;28;20239;-86
2022/01/14 11:32:05;;;;;;;29.13;18.30;;;16.40;97.40;;;;;;4975538;28;20231;-86
2022/01/14 11:34:41;;;;;;;33.57;18.87;;;16.40;96.50;;;;;;4975979;28;20243;-87
2022/01/14 11:37:16;;;;;;;28.33;18.60;;;16.00;96.80;;;;;;4975495;28;20181;-86
2022/01/14 11:40:04;;;;;;;29.67;17.80;;;15.70;97.80;;;;;;4976187;28;20185;-86
2022/01/14 11:42:41;;;;;;;29.57;18.33;;;15.70;97.30;;;;;;4975619;28;20246;-88
2022/01/14 11:45:07;;;;;;;32.27;18.60;;;15.30;97.90;;;;;;4975797;28;20659;-88
2022/01/14 11:50:06;;;;;;;29.03;18.53;;;16.00;97.30;;;;;;4993048;28;20345;-87
2022/01/14 11:52:38;;;;;;;24.80;16.93;;;16.30;97.10;;;;;;4975786;28;20190;-87
2022/01/14 11:55:19;;;;;;;28.47;18.17;;;16.80;96.90;;;;;;4975578;28;20210;-87
2022/01/14 11:57:53;;;;;;;30.77;17.93;;;17.50;95.40;;;;;;4975635;28;20240;-87
2022/01/14 12:00:27;;;;;;;37.13;19.30;;;17.30;95.60;;;;;;4975591;28;20632;-87
2022/01/14 12:03:25;;;;;;;30.70;18.00;;;17.40;95.00;;;;;;4975549;28;20770;-87
2022/01/14 12:05:54;;;;;;;31.30;18.33;;;17.60;95.20;;;;;;4975353;28;20229;-87
2022/01/14 12:08:30;;;;;;;30.90;18.27;;;17.90;94.70;;;;;;4974952;28;20188;-86
2022/01/14 12:10:59;;;;;;;33.47;18.70;;;18.20;94.30;;;;;;4975847;28;20184;-87
2022/01/14 12:13:48;;;;;;;34.07;18.77;;;18.50;94.00;;;;;;4975327;28;20177;-87
2022/01/14 12:16:35;;;;;;;31.30;17.60;;;18.90;93.50;;;;;;4975222;28;20228;-86
2022/01/14 12:19:02;;;;;;;24.90;17.37;;;19.10;93.20;;;;;;4991173;28;20208;-86
2022/01/14 12:21:43;;;;;;;32.23;17.23;;;19.10;93.30;;;;;;4975448;28;20213;-86
2022/01/14 12:24:14;;;;;;;25.87;17.00;;;19.90;92.30;;;;;;4975140;28;20594;-87
2022/01/14 12:27:00;;;;;;;24.03;16.67;;;19.80;92.40;;;;;;4975052;28;20200;-87
2022/01/14 12:29:47;;;;;;;26.60;16.57;;;20.40;91.70;;;;;;4966500;28;20189;-86
2022/01/14 12:32:17;;;;;;;29.23;17.93;;;19.70;92.10;;;;;;4970053;28;20185;-87
2022/01/14 12:34:55;;;;;;;25.47;16.67;;;20.40;91.50;;;;;;4973276;28;20268;-87
2022/01/14 12:37:28;;;;;;;27.40;18.03;;;21.60;89.90;;;;;;4975359;28;20182;-86
2022/01/14 12:39:55;;;;;;;27.27;17.77;;;21.70;89.60;;;;;;4996311;28;20186;-86
2022/01/14 12:42:23;;;;;;;23.80;16.83;;;22.30;87.60;;;;;;4978824;28;20205;-85
2022/01/14 12:44:52;;;;;;;26.27;16.47;;;21.50;88.40;;;;;;4978526;28;20202;-87
2022/01/14 12:47:24;;;;;;;22.80;15.17;;;21.40;88.40;;;;;;4996243;28;20220;-87
2022/01/14 12:49:50;;;;;;;26.77;16.03;;;19.90;90.40;;;;;;4978799;28;20225;-87
2022/01/14 12:52:38;;;;;;;26.10;16.10;;;18.40;92.20;;;;;;4978758;28;20311;-86
2022/01/14 12:55:05;;;;;;;24.73;16.53;;;18.00;92.50;;;;;;4978756;28;20304;-85
2022/01/14 12:57:31;;;;;;;24.03;16.20;;;16.80;94.00;;;;;;4978819;28;20475;-87
2022/01/14 12:59:57;;;;;;;27.23;15.97;;;15.50;96.10;;;;;;4976690;28;20733;-87
2022/01/14 13:02:24;;;;;;;21.57;15.50;;;14.40;98.20;;;;;;4973037;28;20228;-88
2022/01/14 13:05:16;;;;;;;25.93;14.90;;;14.10;99.30;;;;;;4977850;28;20185;-87
2022/01/14 13:07:43;;;;;;;23.00;14.30;;;14.10;99.90;;;;;;4978323;28;20204;-87